Annou G.o. — V7UI5 — position and weather

sailwx.info

Track history (hours):
 
Tides and Currents Weather Stations Pressure Air Temp Water Temp Dewpoint Dewpoint Depression Visibility Wind Speed Wind Dir Waves Ship Positions

Annou G.o.

Last reported at 2017-Sep-27 14:15 UTC. Time now 2017-Oct-22 17:51 UTC.
Position N 48°31' W 127°08'.
Warning: this ship's position is 25 days out of date.

Length 229 m; draft 13.7 m.

Type: Cargo ship. MMSI: 538003955.

Date/timePositionNaut miles runAvg speedWind from/ knotsBaromVisibWave heightAir tempDewpointWater temp
2017-Sep-27 14:15N 48°31' W 127°08'512.0
2017-Sep-27 13:49N 48°31' W 126°60'412.3
2017-Sep-27 13:29N 48°31' W 126°54'712.3
2017-Sep-27 12:56N 48°31' W 126°43'712.2
2017-Sep-27 12:23N 48°31' W 126°33'511.8
2017-Sep-27 11:58N 48°31' W 126°26'612.0
2017-Sep-27 11:30N 48°31' W 126°18'611.9
2017-Sep-27 11:00N 48°31' W 126°09'611.7
2017-Sep-27 10:30N 48°31' W 125°60'612.1
2017-Sep-27 10:00N 48°31' W 125°51'612.4
2017-Sep-27 09:30N 48°31' W 125°41'612.4
2017-Sep-27 09:00N 48°31' W 125°32'612.3
2017-Sep-27 08:30N 48°31' W 125°23'612.4
2017-Sep-27 08:00N 48°31' W 125°13'612.8
2017-Sep-27 07:30N 48°31' W 125°04'713.0
2017-Sep-27 07:00N 48°31' W 124°54'713.2
2017-Sep-27 06:30N 48°30' W 124°44'713.6
2017-Sep-27 06:00N 48°28' W 124°34'713.2
2017-Sep-27 05:30N 48°26' W 124°25'713.0
2017-Sep-27 05:00N 48°23' W 124°16'713.1
2017-Sep-27 04:30N 48°20' W 124°07'612.8
2017-Sep-27 04:00N 48°18' W 123°58'612.6
2017-Sep-27 03:30N 48°17' W 123°49'612.7
2017-Sep-27 03:00N 48°16' W 123°39'611.8
2017-Sep-27 02:30N 48°16' W 123°30'511.2
2017-Sep-27 02:00N 48°20' W 123°26'4 8.5
2017-Sep-27 01:30N 48°23' W 123°21'510.4
2017-Sep-27 01:00N 48°24' W 123°14'611.9
2017-Sep-27 00:30N 48°30' W 123°13'612.9
2017-Sep-27 00:00N 48°37' W 123°14'611.0
2017-Sep-26 23:30N 48°42' W 123°14'613.0
2017-Sep-26 23:00N 48°45' W 123°05'5 9.3
2017-Sep-26 22:30N 48°49' W 123°02'612.8
2017-Sep-26 22:00N 48°54' W 123°09'612.5
2017-Sep-26 21:30N 48°59' W 123°15'612.2
2017-Sep-26 21:00N 49°03' W 123°22'611.8
2017-Sep-26 20:30N 49°09' W 123°23'612.3
2017-Sep-26 20:00N 49°15' W 123°21'611.1
2017-Sep-26 19:30N 49°19' W 123°15'510.0
2017-Sep-26 19:00N 49°19' W 123°07'2 3.2
2017-Sep-26 18:29N 49°18' W 123°05'0 0.2
2017-Sep-26 17:59N 49°18' W 123°05'0 0.2
2017-Sep-26 17:29N 49°18' W 123°05'0 0.2
2017-Sep-26 16:59N 49°18' W 123°05'0 0.0
2017-Sep-26 16:29N 49°18' W 123°05'0 0.0
2017-Sep-26 15:59N 49°18' W 123°05'0 0.1
2017-Sep-26 15:29N 49°18' W 123°05'0 0.1
2017-Sep-26 14:59N 49°18' W 123°05'0 0.1
2017-Sep-26 14:29N 49°18' W 123°05'0 0.1
2017-Sep-26 13:59N 49°18' W 123°05'0 0.1
2017-Sep-26 13:29N 49°18' W 123°05'0 0.2
2017-Sep-26 12:59N 49°18' W 123°05'0 0.1
2017-Sep-26 12:29N 49°18' W 123°05'0 0.1
2017-Sep-26 11:59N 49°18' W 123°05'0 0.0
2017-Sep-26 11:29N 49°18' W 123°05'0 0.0
2017-Sep-26 10:59N 49°18' W 123°05'0 0.0
2017-Sep-26 10:29N 49°18' W 123°05'0 0.0
2017-Sep-26 09:59N 49°18' W 123°05'0 0.0
2017-Sep-26 09:29N 49°18' W 123°05'0 0.0
2017-Sep-26 08:59N 49°18' W 123°05'0 0.1
2017-Sep-26 08:29N 49°18' W 123°05'0 0.2
2017-Sep-26 07:59N 49°18' W 123°05'0 0.2
2017-Sep-26 07:31N 49°18' W 123°05'3 5.1
2017-Sep-26 07:00N 49°19' W 123°09'4 8.0
2017-Sep-26 06:30N 49°19' W 123°15'510.7
2017-Sep-26 06:01N 49°14' W 123°19'611.2
2017-Sep-26 05:30N 49°08' W 123°20'510.2
2017-Sep-26 05:00N 49°03' W 123°20'5 9.8
2017-Sep-26 04:30N 49°01' W 123°13'3 5.4
2017-Sep-26 04:01N 49°01' W 123°09'0 0.2
2017-Sep-26 03:29N 49°01' W 123°09'0 0.0
2017-Sep-26 02:59N 49°01' W 123°09'0 0.0
2017-Sep-26 02:29N 49°01' W 123°09'0 0.0
2017-Sep-26 01:59N 49°01' W 123°09'0 0.0
2017-Sep-26 01:29N 49°01' W 123°09'0 0.0
2017-Sep-26 00:59N 49°01' W 123°09'0 0.0
2017-Sep-26 00:28N 49°01' W 123°09'0 0.0
2017-Sep-25 23:59N 49°01' W 123°09'0 0.0
2017-Sep-25 23:29N 49°01' W 123°09'0 0.0
2017-Sep-25 22:58N 49°01' W 123°09'0 0.0
2017-Sep-25 22:29N 49°01' W 123°09'0 0.0
2017-Sep-25 21:59N 49°01' W 123°09'0 0.0
2017-Sep-25 21:28N 49°01' W 123°09'0 0.0
2017-Sep-25 20:56N 49°01' W 123°09'0 0.0
2017-Sep-25 20:29N 49°01' W 123°09'0 0.0
2017-Sep-25 19:58N 49°01' W 123°09'0 0.0
2017-Sep-25 19:29N 49°01' W 123°09'0 0.0
2017-Sep-25 18:59N 49°01' W 123°09'0 0.0
2017-Sep-25 18:29N 49°01' W 123°09'0 0.1
2017-Sep-25 17:59N 49°01' W 123°09'0 0.1
2017-Sep-25 17:29N 49°01' W 123°09'0 0.0
2017-Sep-25 16:59N 49°01' W 123°09'0 0.0
2017-Sep-25 16:29N 49°01' W 123°09'0 0.0
2017-Sep-25 15:52N 49°01' W 123°09'0 0.0
2017-Sep-25 15:28N 49°01' W 123°09'0 0.0
2017-Sep-25 14:58N 49°01' W 123°09'0 0.0
2017-Sep-25 14:29N 49°01' W 123°09'0 0.0
2017-Sep-25 13:58N 49°01' W 123°09'0 0.0
2017-Sep-25 13:29N 49°01' W 123°09'0 0.0
2017-Sep-25 12:58N 49°01' W 123°09'0 0.0
2017-Sep-25 12:28N 49°01' W 123°09'0 0.0
2017-Sep-25 11:58N 49°01' W 123°09'0 0.0
2017-Sep-25 11:29N 49°01' W 123°09'0 0.0
2017-Sep-25 10:56N 49°01' W 123°09'0 0.0
2017-Sep-25 10:22N 49°01' W 123°09'0 0.0
2017-Sep-25 09:59N 49°01' W 123°09'0 0.0
2017-Sep-25 09:29N 49°01' W 123°09'0 0.0
2017-Sep-25 08:58N 49°01' W 123°09'0 0.0
2017-Sep-25 08:29N 49°01' W 123°09'0 0.0
2017-Sep-25 07:59N 49°01' W 123°09'0 0.0
2017-Sep-25 07:29N 49°01' W 123°09'0 0.0
2017-Sep-25 06:56N 49°01' W 123°09'0 0.0
2017-Sep-25 06:25N 49°01' W 123°09'0 0.0
2017-Sep-25 05:55N 49°01' W 123°09'0 0.0
2017-Sep-25 05:28N 49°01' W 123°09'0 0.0
2017-Sep-25 04:58N 49°01' W 123°09'0 0.0
2017-Sep-25 04:28N 49°01' W 123°09'0 0.0
2017-Sep-25 03:58N 49°01' W 123°09'0 0.0
2017-Sep-25 03:28N 49°01' W 123°09'0 0.0
2017-Sep-25 02:58N 49°01' W 123°09'0 0.0
2017-Sep-25 02:28N 49°01' W 123°09'0 0.0
2017-Sep-25 01:58N 49°01' W 123°09'0 0.0
2017-Sep-25 01:28N 49°01' W 123°09'0 0.0
2017-Sep-25 00:59N 49°01' W 123°09'0 0.0
2017-Sep-25 00:29N 49°01' W 123°09'0 0.0
2017-Sep-24 23:59N 49°01' W 123°09'0 0.0
2017-Sep-24 23:28N 49°01' W 123°09'0 0.0
2017-Sep-24 22:58N 49°01' W 123°09'0 0.0
2017-Sep-24 22:28N 49°01' W 123°09'0 0.0
2017-Sep-24 21:58N 49°01' W 123°09'0 0.0
2017-Sep-24 21:28N 49°01' W 123°09'0 0.0
2017-Sep-24 20:58N 49°01' W 123°09'0 0.0
2017-Sep-24 20:25N 49°01' W 123°09'0 0.0
2017-Sep-24 19:52N 49°01' W 123°09'0 0.0
2017-Sep-24 19:28N 49°01' W 123°09'0 0.0
2017-Sep-24 18:58N 49°01' W 123°09'0 0.0
2017-Sep-24 18:28N 49°01' W 123°09'0 0.0
2017-Sep-24 17:58N 49°01' W 123°09'0 0.0
2017-Sep-24 17:28N 49°01' W 123°09'0 0.0
2017-Sep-24 16:58N 49°01' W 123°09'0 0.0
2017-Sep-24 16:28N 49°01' W 123°09'0 0.0
2017-Sep-24 15:58N 49°01' W 123°09'0 0.0
2017-Sep-24 15:22N 49°01' W 123°09'0 0.0
2017-Sep-24 14:58N 49°01' W 123°09'0 0.0
2017-Sep-24 14:28N 49°01' W 123°09'0 0.0
2017-Sep-24 13:58N 49°01' W 123°09'0 0.0
2017-Sep-24 13:28N 49°01' W 123°09'0 0.0
2017-Sep-24 12:58N 49°01' W 123°09'0 0.0
2017-Sep-24 12:28N 49°01' W 123°09'0 0.0
2017-Sep-24 11:58N 49°01' W 123°09'0 0.0
2017-Sep-24 11:28N 49°01' W 123°09'0 0.0
2017-Sep-24 10:58N 49°01' W 123°09'0 0.0
2017-Sep-24 10:28N 49°01' W 123°09'0 0.0
2017-Sep-24 09:58N 49°01' W 123°09'0 0.0
2017-Sep-24 09:25N 49°01' W 123°09'0 0.0
2017-Sep-24 09:00N 49°01' W 123°09'0 0.1
2017-Sep-24 08:31N 49°01' W 123°09'1 2.5
2017-Sep-24 08:00N 49°00' W 123°11'0 1.0
2017-Sep-24 07:30N 49°00' W 123°11'2 3.2
2017-Sep-24 07:00N 49°01' W 123°14'4 8.5
2017-Sep-24 06:30N 49°01' W 123°20'612.6
2017-Sep-24 06:00N 49°08' W 123°23'714.4
2017-Sep-24 05:30N 49°15' W 123°21'612.1
2017-Sep-24 05:00N 49°19' W 123°14'1 2.3
2017-Sep-24 04:29N 49°18' W 123°12'0 0.1
2017-Sep-24 03:56N 49°18' W 123°12'0 0.2
2017-Sep-24 03:29N 49°18' W 123°12'0 0.0
2017-Sep-24 02:56N 49°18' W 123°12'0 0.1
2017-Sep-24 02:29N 49°18' W 123°12'0 0.1
2017-Sep-24 01:56N 49°18' W 123°12'0 0.0
2017-Sep-24 01:29N 49°18' W 123°12'0 0.0
2017-Sep-24 00:59N 49°18' W 123°12'0 0.1
2017-Sep-24 00:29N 49°18' W 123°12'0 0.2
2017-Sep-23 23:59N 49°18' W 123°12'0 0.0
2017-Sep-23 23:29N 49°18' W 123°12'0 0.0
2017-Sep-23 22:59N 49°18' W 123°12'0 0.0
2017-Sep-23 22:29N 49°18' W 123°12'0 0.0
2017-Sep-23 21:59N 49°18' W 123°12'0 0.0
2017-Sep-23 21:29N 49°18' W 123°12'0 0.1
2017-Sep-23 20:59N 49°18' W 123°12'0 0.0
2017-Sep-23 20:29N 49°18' W 123°12'0 0.1
2017-Sep-23 19:59N 49°18' W 123°12'58 1.4
2017-Sep-22 01:59N 48°21' W 123°20'0 0.1
2017-Sep-22 01:29N 48°21' W 123°20'0 0.0
2017-Sep-22 00:53N 48°21' W 123°20'0 0.0
2017-Sep-22 00:29N 48°21' W 123°20'0 0.0
2017-Sep-21 23:59N 48°21' W 123°20'0 0.1
2017-Sep-21 23:29N 48°21' W 123°20'0 0.0
2017-Sep-21 22:59N 48°21' W 123°20'0 0.0
2017-Sep-21 22:29N 48°21' W 123°20'0 0.0
2017-Sep-21 21:56N 48°21' W 123°20'0 0.0
2017-Sep-21 21:29N 48°21' W 123°20'0 0.1
2017-Sep-21 20:59N 48°21' W 123°20'0 0.2
2017-Sep-21 20:29N 48°21' W 123°21'0 0.1
2017-Sep-21 19:59N 48°21' W 123°21'0 0.1
2017-Sep-21 19:29N 48°21' W 123°21'0 0.1
2017-Sep-21 18:59N 48°21' W 123°21'0 0.1
2017-Sep-21 18:29N 48°21' W 123°21'0 0.0
2017-Sep-21 17:59N 48°21' W 123°21'0 0.5
2017-Sep-21 17:30N 48°21' W 123°21'2 4.1
2017-Sep-21 17:00N 48°22' W 123°23'4 7.5
2017-Sep-21 16:30N 48°23' W 123°17'4 8.3
2017-Sep-21 16:00N 48°25' W 123°11'4 8.7
2017-Sep-21 15:30N 48°23' W 123°17'510.1
2017-Sep-21 15:00N 48°21' W 123°24'711.4
2017-Sep-21 14:24N 48°15' W 123°29'410.2
2017-Sep-21 14:00N 48°14' W 123°35'610.9
2017-Sep-21 13:29N 48°14' W 123°43'613.4
2017-Sep-21 13:00N 48°14' W 123°53'612.6
2017-Sep-21 12:30N 48°16' W 124°02'612.6
2017-Sep-21 12:00N 48°18' W 124°10'510.6
2017-Sep-21 11:30N 48°20' W 124°18'5 9.4
2017-Sep-21 11:00N 48°22' W 124°24'5 9.0
2017-Sep-21 10:30N 48°24' W 124°30'611.1
2017-Sep-21 10:00N 48°27' W 124°38'612.7
2017-Sep-21 09:30N 48°29' W 124°47'612.5
2017-Sep-21 09:00N 48°29' W 124°56'612.1
2017-Sep-21 08:30N 48°29' W 125°06'611.8
2017-Sep-21 08:01N 48°29' W 125°14'4 8.7
2017-Sep-21 07:30N 48°28' W 125°21'3 5.1
2017-Sep-21 07:00N 48°28' W 125°25'510.0
2017-Sep-21 06:30N 48°28' W 125°32'611.9
2017-Sep-21 06:00N 48°29' W 125°41'611.5
2017-Sep-21 05:30N 48°29' W 125°50'611.9
2017-Sep-21 05:00N 48°29' W 125°59'612.4
2017-Sep-21 04:30N 48°29' W 126°08'612.2
2017-Sep-21 04:00N 48°29' W 126°17'612.2
2017-Sep-21 03:30N 48°28' W 126°27'  
Track history (hours):
 
Tides and Currents Weather Stations Pressure Air Temp Water Temp Dewpoint Dewpoint Depression Visibility Wind Speed Wind Dir Waves Ship Positions

Annou G.o.

Last reported at 2017-Sep-27 14:15 UTC. Time now 2017-Oct-22 17:51 UTC.
Position N 48°31' W 127°08'.
Warning: this ship's position is 25 days out of date.

Length 229 m; draft 13.7 m.

Type: Cargo ship. MMSI: 538003955.

Date/timePositionNaut miles runAvg speedWind from/ knotsBaromVisibWave heightAir tempDewpointWater temp
2017-Sep-27 14:15N 48°31' W 127°08'512.0
2017-Sep-27 13:49N 48°31' W 126°60'412.3
2017-Sep-27 13:29N 48°31' W 126°54'712.3
2017-Sep-27 12:56N 48°31' W 126°43'712.2
2017-Sep-27 12:23N 48°31' W 126°33'511.8
2017-Sep-27 11:58N 48°31' W 126°26'612.0
2017-Sep-27 11:30N 48°31' W 126°18'611.9
2017-Sep-27 11:00N 48°31' W 126°09'611.7
2017-Sep-27 10:30N 48°31' W 125°60'612.1
2017-Sep-27 10:00N 48°31' W 125°51'612.4
2017-Sep-27 09:30N 48°31' W 125°41'612.4
2017-Sep-27 09:00N 48°31' W 125°32'612.3
2017-Sep-27 08:30N 48°31' W 125°23'612.4
2017-Sep-27 08:00N 48°31' W 125°13'612.8
2017-Sep-27 07:30N 48°31' W 125°04'713.0
2017-Sep-27 07:00N 48°31' W 124°54'713.2
2017-Sep-27 06:30N 48°30' W 124°44'713.6
2017-Sep-27 06:00N 48°28' W 124°34'713.2
2017-Sep-27 05:30N 48°26' W 124°25'713.0
2017-Sep-27 05:00N 48°23' W 124°16'713.1
2017-Sep-27 04:30N 48°20' W 124°07'612.8
2017-Sep-27 04:00N 48°18' W 123°58'612.6
2017-Sep-27 03:30N 48°17' W 123°49'612.7
2017-Sep-27 03:00N 48°16' W 123°39'611.8
2017-Sep-27 02:30N 48°16' W 123°30'511.2
2017-Sep-27 02:00N 48°20' W 123°26'4 8.5
2017-Sep-27 01:30N 48°23' W 123°21'510.4
2017-Sep-27 01:00N 48°24' W 123°14'611.9
2017-Sep-27 00:30N 48°30' W 123°13'612.9
2017-Sep-27 00:00N 48°37' W 123°14'611.0
2017-Sep-26 23:30N 48°42' W 123°14'613.0
2017-Sep-26 23:00N 48°45' W 123°05'5 9.3
2017-Sep-26 22:30N 48°49' W 123°02'612.8
2017-Sep-26 22:00N 48°54' W 123°09'612.5
2017-Sep-26 21:30N 48°59' W 123°15'612.2
2017-Sep-26 21:00N 49°03' W 123°22'611.8
2017-Sep-26 20:30N 49°09' W 123°23'612.3
2017-Sep-26 20:00N 49°15' W 123°21'611.1
2017-Sep-26 19:30N 49°19' W 123°15'510.0
2017-Sep-26 19:00N 49°19' W 123°07'2 3.2
2017-Sep-26 18:29N 49°18' W 123°05'0 0.2
2017-Sep-26 17:59N 49°18' W 123°05'0 0.2
2017-Sep-26 17:29N 49°18' W 123°05'0 0.2
2017-Sep-26 16:59N 49°18' W 123°05'0 0.0
2017-Sep-26 16:29N 49°18' W 123°05'0 0.0
2017-Sep-26 15:59N 49°18' W 123°05'0 0.1
2017-Sep-26 15:29N 49°18' W 123°05'0 0.1
2017-Sep-26 14:59N 49°18' W 123°05'0 0.1
2017-Sep-26 14:29N 49°18' W 123°05'0 0.1
2017-Sep-26 13:59N 49°18' W 123°05'0 0.1
2017-Sep-26 13:29N 49°18' W 123°05'0 0.2
2017-Sep-26 12:59N 49°18' W 123°05'0 0.1
2017-Sep-26 12:29N 49°18' W 123°05'0 0.1
2017-Sep-26 11:59N 49°18' W 123°05'0 0.0
2017-Sep-26 11:29N 49°18' W 123°05'0 0.0
2017-Sep-26 10:59N 49°18' W 123°05'0 0.0
2017-Sep-26 10:29N 49°18' W 123°05'0 0.0
2017-Sep-26 09:59N 49°18' W 123°05'0 0.0
2017-Sep-26 09:29N 49°18' W 123°05'0 0.0
2017-Sep-26 08:59N 49°18' W 123°05'0 0.1
2017-Sep-26 08:29N 49°18' W 123°05'0 0.2
2017-Sep-26 07:59N 49°18' W 123°05'0 0.2
2017-Sep-26 07:31N 49°18' W 123°05'3 5.1
2017-Sep-26 07:00N 49°19' W 123°09'4 8.0
2017-Sep-26 06:30N 49°19' W 123°15'510.7
2017-Sep-26 06:01N 49°14' W 123°19'611.2
2017-Sep-26 05:30N 49°08' W 123°20'510.2
2017-Sep-26 05:00N 49°03' W 123°20'5 9.8
2017-Sep-26 04:30N 49°01' W 123°13'3 5.4
2017-Sep-26 04:01N 49°01' W 123°09'0 0.2
2017-Sep-26 03:29N 49°01' W 123°09'0 0.0
2017-Sep-26 02:59N 49°01' W 123°09'0 0.0
2017-Sep-26 02:29N 49°01' W 123°09'0 0.0
2017-Sep-26 01:59N 49°01' W 123°09'0 0.0
2017-Sep-26 01:29N 49°01' W 123°09'0 0.0
2017-Sep-26 00:59N 49°01' W 123°09'0 0.0
2017-Sep-26 00:28N 49°01' W 123°09'0 0.0
2017-Sep-25 23:59N 49°01' W 123°09'0 0.0
2017-Sep-25 23:29N 49°01' W 123°09'0 0.0
2017-Sep-25 22:58N 49°01' W 123°09'0 0.0
2017-Sep-25 22:29N 49°01' W 123°09'0 0.0
2017-Sep-25 21:59N 49°01' W 123°09'0 0.0
2017-Sep-25 21:28N 49°01' W 123°09'0 0.0
2017-Sep-25 20:56N 49°01' W 123°09'0 0.0
2017-Sep-25 20:29N 49°01' W 123°09'0 0.0
2017-Sep-25 19:58N 49°01' W 123°09'0 0.0
2017-Sep-25 19:29N 49°01' W 123°09'0 0.0
2017-Sep-25 18:59N 49°01' W 123°09'0 0.0
2017-Sep-25 18:29N 49°01' W 123°09'0 0.1
2017-Sep-25 17:59N 49°01' W 123°09'0 0.1
2017-Sep-25 17:29N 49°01' W 123°09'0 0.0
2017-Sep-25 16:59N 49°01' W 123°09'0 0.0
2017-Sep-25 16:29N 49°01' W 123°09'0 0.0
2017-Sep-25 15:52N 49°01' W 123°09'0 0.0
2017-Sep-25 15:28N 49°01' W 123°09'0 0.0
2017-Sep-25 14:58N 49°01' W 123°09'0 0.0
2017-Sep-25 14:29N 49°01' W 123°09'0 0.0
2017-Sep-25 13:58N 49°01' W 123°09'0 0.0
2017-Sep-25 13:29N 49°01' W 123°09'0 0.0
2017-Sep-25 12:58N 49°01' W 123°09'0 0.0
2017-Sep-25 12:28N 49°01' W 123°09'0 0.0
2017-Sep-25 11:58N 49°01' W 123°09'0 0.0
2017-Sep-25 11:29N 49°01' W 123°09'0 0.0
2017-Sep-25 10:56N 49°01' W 123°09'0 0.0
2017-Sep-25 10:22N 49°01' W 123°09'0 0.0
2017-Sep-25 09:59N 49°01' W 123°09'0 0.0
2017-Sep-25 09:29N 49°01' W 123°09'0 0.0
2017-Sep-25 08:58N 49°01' W 123°09'0 0.0
2017-Sep-25 08:29N 49°01' W 123°09'0 0.0
2017-Sep-25 07:59N 49°01' W 123°09'0 0.0
2017-Sep-25 07:29N 49°01' W 123°09'0 0.0
2017-Sep-25 06:56N 49°01' W 123°09'0 0.0
2017-Sep-25 06:25N 49°01' W 123°09'0 0.0
2017-Sep-25 05:55N 49°01' W 123°09'0 0.0
2017-Sep-25 05:28N 49°01' W 123°09'0 0.0
2017-Sep-25 04:58N 49°01' W 123°09'0 0.0
2017-Sep-25 04:28N 49°01' W 123°09'0 0.0
2017-Sep-25 03:58N 49°01' W 123°09'0 0.0
2017-Sep-25 03:28N 49°01' W 123°09'0 0.0
2017-Sep-25 02:58N 49°01' W 123°09'0 0.0
2017-Sep-25 02:28N 49°01' W 123°09'0 0.0
2017-Sep-25 01:58N 49°01' W 123°09'0 0.0
2017-Sep-25 01:28N 49°01' W 123°09'0 0.0
2017-Sep-25 00:59N 49°01' W 123°09'0 0.0
2017-Sep-25 00:29N 49°01' W 123°09'0 0.0
2017-Sep-24 23:59N 49°01' W 123°09'0 0.0
2017-Sep-24 23:28N 49°01' W 123°09'0 0.0
2017-Sep-24 22:58N 49°01' W 123°09'0 0.0
2017-Sep-24 22:28N 49°01' W 123°09'0 0.0
2017-Sep-24 21:58N 49°01' W 123°09'0 0.0
2017-Sep-24 21:28N 49°01' W 123°09'0 0.0
2017-Sep-24 20:58N 49°01' W 123°09'0 0.0
2017-Sep-24 20:25N 49°01' W 123°09'0 0.0
2017-Sep-24 19:52N 49°01' W 123°09'0 0.0
2017-Sep-24 19:28N 49°01' W 123°09'0 0.0
2017-Sep-24 18:58N 49°01' W 123°09'0 0.0
2017-Sep-24 18:28N 49°01' W 123°09'0 0.0
2017-Sep-24 17:58N 49°01' W 123°09'0 0.0
2017-Sep-24 17:28N 49°01' W 123°09'0 0.0
2017-Sep-24 16:58N 49°01' W 123°09'0 0.0
2017-Sep-24 16:28N 49°01' W 123°09'0 0.0
2017-Sep-24 15:58N 49°01' W 123°09'0 0.0
2017-Sep-24 15:22N 49°01' W 123°09'0 0.0
2017-Sep-24 14:58N 49°01' W 123°09'0 0.0
2017-Sep-24 14:28N 49°01' W 123°09'0 0.0
2017-Sep-24 13:58N 49°01' W 123°09'0 0.0
2017-Sep-24 13:28N 49°01' W 123°09'0 0.0
2017-Sep-24 12:58N 49°01' W 123°09'0 0.0
2017-Sep-24 12:28N 49°01' W 123°09'0 0.0
2017-Sep-24 11:58N 49°01' W 123°09'0 0.0
2017-Sep-24 11:28N 49°01' W 123°09'0 0.0
2017-Sep-24 10:58N 49°01' W 123°09'0 0.0
2017-Sep-24 10:28N 49°01' W 123°09'0 0.0
2017-Sep-24 09:58N 49°01' W 123°09'0 0.0
2017-Sep-24 09:25N 49°01' W 123°09'0 0.0
2017-Sep-24 09:00N 49°01' W 123°09'0 0.1
2017-Sep-24 08:31N 49°01' W 123°09'1 2.5
2017-Sep-24 08:00N 49°00' W 123°11'0 1.0
2017-Sep-24 07:30N 49°00' W 123°11'2 3.2
2017-Sep-24 07:00N 49°01' W 123°14'4 8.5
2017-Sep-24 06:30N 49°01' W 123°20'612.6
2017-Sep-24 06:00N 49°08' W 123°23'714.4
2017-Sep-24 05:30N 49°15' W 123°21'612.1
2017-Sep-24 05:00N 49°19' W 123°14'1 2.3
2017-Sep-24 04:29N 49°18' W 123°12'0 0.1
2017-Sep-24 03:56N 49°18' W 123°12'0 0.2
2017-Sep-24 03:29N 49°18' W 123°12'0 0.0
2017-Sep-24 02:56N 49°18' W 123°12'0 0.1
2017-Sep-24 02:29N 49°18' W 123°12'0 0.1
2017-Sep-24 01:56N 49°18' W 123°12'0 0.0
2017-Sep-24 01:29N 49°18' W 123°12'0 0.0
2017-Sep-24 00:59N 49°18' W 123°12'0 0.1
2017-Sep-24 00:29N 49°18' W 123°12'0 0.2
2017-Sep-23 23:59N 49°18' W 123°12'0 0.0
2017-Sep-23 23:29N 49°18' W 123°12'0 0.0
2017-Sep-23 22:59N 49°18' W 123°12'0 0.0
2017-Sep-23 22:29N 49°18' W 123°12'0 0.0
2017-Sep-23 21:59N 49°18' W 123°12'0 0.0
2017-Sep-23 21:29N 49°18' W 123°12'0 0.1
2017-Sep-23 20:59N 49°18' W 123°12'0 0.0
2017-Sep-23 20:29N 49°18' W 123°12'0 0.1
2017-Sep-23 19:59N 49°18' W 123°12'58 1.4
2017-Sep-22 01:59N 48°21' W 123°20'0 0.1
2017-Sep-22 01:29N 48°21' W 123°20'0 0.0
2017-Sep-22 00:53N 48°21' W 123°20'0 0.0
2017-Sep-22 00:29N 48°21' W 123°20'0 0.0
2017-Sep-21 23:59N 48°21' W 123°20'0 0.1
2017-Sep-21 23:29N 48°21' W 123°20'0 0.0
2017-Sep-21 22:59N 48°21' W 123°20'0 0.0
2017-Sep-21 22:29N 48°21' W 123°20'0 0.0
2017-Sep-21 21:56N 48°21' W 123°20'0 0.0
2017-Sep-21 21:29N 48°21' W 123°20'0 0.1
2017-Sep-21 20:59N 48°21' W 123°20'0 0.2
2017-Sep-21 20:29N 48°21' W 123°21'0 0.1
2017-Sep-21 19:59N 48°21' W 123°21'0 0.1
2017-Sep-21 19:29N 48°21' W 123°21'0 0.1
2017-Sep-21 18:59N 48°21' W 123°21'0 0.1
2017-Sep-21 18:29N 48°21' W 123°21'0 0.0
2017-Sep-21 17:59N 48°21' W 123°21'0 0.5
2017-Sep-21 17:30N 48°21' W 123°21'2 4.1
2017-Sep-21 17:00N 48°22' W 123°23'4 7.5
2017-Sep-21 16:30N 48°23' W 123°17'4 8.3
2017-Sep-21 16:00N 48°25' W 123°11'4 8.7
2017-Sep-21 15:30N 48°23' W 123°17'510.1
2017-Sep-21 15:00N 48°21' W 123°24'711.4
2017-Sep-21 14:24N 48°15' W 123°29'410.2
2017-Sep-21 14:00N 48°14' W 123°35'610.9
2017-Sep-21 13:29N 48°14' W 123°43'613.4
2017-Sep-21 13:00N 48°14' W 123°53'612.6
2017-Sep-21 12:30N 48°16' W 124°02'612.6
2017-Sep-21 12:00N 48°18' W 124°10'510.6
2017-Sep-21 11:30N 48°20' W 124°18'5 9.4
2017-Sep-21 11:00N 48°22' W 124°24'5 9.0
2017-Sep-21 10:30N 48°24' W 124°30'611.1
2017-Sep-21 10:00N 48°27' W 124°38'612.7
2017-Sep-21 09:30N 48°29' W 124°47'612.5
2017-Sep-21 09:00N 48°29' W 124°56'612.1
2017-Sep-21 08:30N 48°29' W 125°06'611.8
2017-Sep-21 08:01N 48°29' W 125°14'4 8.7
2017-Sep-21 07:30N 48°28' W 125°21'3 5.1
2017-Sep-21 07:00N 48°28' W 125°25'510.0
2017-Sep-21 06:30N 48°28' W 125°32'611.9
2017-Sep-21 06:00N 48°29' W 125°41'611.5
2017-Sep-21 05:30N 48°29' W 125°50'611.9
2017-Sep-21 05:00N 48°29' W 125°59'612.4
2017-Sep-21 04:30N 48°29' W 126°08'612.2
2017-Sep-21 04:00N 48°29' W 126°17'612.2
2017-Sep-21 03:30N 48°28' W 126°27'  

Dump ship's entire track history